Time;durP1;ratioP1;P1;durP2;ratioP2;P2;SDS_P1;SDS_P2;PMS_P1;PMS_P2;Temp;Humidity;BMP_temperature;BMP_pressure;BME280_temperature;BME280_humidity;BME280_pressure;Samples;Min_cycle;Max_cycle;Signal;HPM_P1;HPM_P2
2023/04/27 00:00:21;;;;;;;;;;;;;;;19.72;37.23;102079.28;5136356;27;19919;-69
2023/04/27 00:02:46;;;;;;;;;;;;;;;19.71;37.36;102080.28;5135285;27;19947;-69
2023/04/27 00:05:12;;;;;;;;;;;;;;;19.69;37.37;102079.56;5132986;27;20144;-69
2023/04/27 00:07:37;;;;;;;;;;;;;;;19.66;37.38;102078.00;5133079;27;19915;-69
2023/04/27 00:10:02;;;;;;;;;;;;;;;19.66;37.39;102080.69;5115596;28;19990;-69
2023/04/27 00:12:27;;;;;;;;;;;;;;;19.63;37.18;102072.91;5132058;27;20376;-70
2023/04/27 00:14:53;;;;;;;;;;;;;;;19.62;37.09;102081.97;5140354;27;19924;-69
2023/04/27 00:17:18;;;;;;;;;;;;;;;19.61;37.42;102079.44;5132154;27;19923;-69
2023/04/27 00:19:44;;;;;;;;;;;;;;;19.59;37.46;102087.66;5142504;27;20403;-69
2023/04/27 00:22:12;;;;;;;;;;;;;;;19.58;37.56;102093.19;5135583;27;20153;-69
2023/04/27 00:24:38;;;;;;;;;;;;;;;19.56;37.36;102098.72;5134564;27;20018;-69
2023/04/27 00:27:03;;;;;;;;;;;;;;;19.55;37.40;102094.34;5136413;27;19916;-69
2023/04/27 00:29:28;;;;;;;;;;;;;;;19.53;37.32;102092.75;5132793;27;19923;-69
2023/04/27 00:31:53;;;;;;;;;;;;;;;19.52;37.48;102097.31;5131316;27;19915;-69
2023/04/27 00:34:18;;;;;;;;;;;;;;;19.49;37.54;102087.66;5130485;27;20306;-69
2023/04/27 00:36:43;;;;;;;;;;;;;;;19.48;37.40;102093.19;5134962;27;19916;-69
2023/04/27 00:39:09;;;;;;;;;;;;;;;19.46;37.30;102093.34;5134346;27;19916;-69
2023/04/27 00:41:40;;;;;;;;;;;;;;;19.45;37.52;102093.47;5120607;27;20006;-69
2023/04/27 00:44:05;;;;;;;;;;;;;;;19.44;37.38;102095.31;5132104;27;19923;-69
2023/04/27 00:46:31;;;;;;;;;;;;;;;19.43;37.47;102084.69;5138432;27;19911;-69
2023/04/27 00:48:56;;;;;;;;;;;;;;;19.41;37.26;102092.94;5118530;27;19916;-69
2023/04/27 00:51:26;;;;;;;;;;;;;;;19.40;37.33;102093.06;5127767;27;19933;-68
2023/04/27 00:53:51;;;;;;;;;;;;;;;19.37;37.34;102094.22;5135082;27;19937;-69
2023/04/27 00:56:16;;;;;;;;;;;;;;;19.37;37.61;102085.25;5126972;27;19915;-68
2023/04/27 00:58:42;;;;;;;;;;;;;;;19.35;37.46;102089.94;5130493;27;19912;-69
2023/04/27 01:01:08;;;;;;;;;;;;;;;19.33;37.32;102092.81;5133202;27;19916;-69
2023/04/27 01:03:33;;;;;;;;;;;;;;;19.34;37.29;102093.66;5136304;27;20269;-69
2023/04/27 01:06:00;;;;;;;;;;;;;;;19.05;37.56;102045.13;5131425;27;20425;-69
2023/04/27 01:08:25;;;;;;;;;;;;;;;19.31;37.30;102091.22;5133052;27;19959;-68
2023/04/27 01:10:50;;;;;;;;;;;;;;;19.30;37.44;102079.59;5133156;27;19920;-69
2023/04/27 01:13:16;;;;;;;;;;;;;;;19.29;37.17;102083.28;5126252;27;19923;-69
2023/04/27 01:15:41;;;;;;;;;;;;;;;19.29;37.52;102086.00;5138374;27;20356;-69
2023/04/27 01:18:06;;;;;;;;;;;;;;;19.28;37.49;102095.03;5131896;27;19912;-69
2023/04/27 01:20:31;;;;;;;;;;;;;;;19.28;37.43;102086.97;5135819;27;19923;-69
2023/04/27 01:22:57;;;;;;;;;;;;;;;19.27;37.33;102082.56;5133862;27;19926;-69
2023/04/27 01:25:22;;;;;;;;;;;;;;;19.27;37.35;102079.03;5115165;28;19971;-69
2023/04/27 01:27:48;;;;;;;;;;;;;;;19.27;37.26;102079.03;5132193;27;19911;-69
2023/04/27 01:30:13;;;;;;;;;;;;;;;19.26;37.23;102082.72;5125711;27;19912;-69
2023/04/27 01:32:39;;;;;;;;;;;;;;;19.26;37.41;102077.31;5130663;27;19930;-69
2023/04/27 01:35:05;;;;;;;;;;;;;;;19.25;37.41;102081.03;5131808;27;19916;-69
2023/04/27 01:37:30;;;;;;;;;;;;;;;19.25;37.25;102076.47;5133859;27;20376;-69
2023/04/27 01:39:56;;;;;;;;;;;;;;;19.25;37.41;102072.94;5130521;27;19911;-69
2023/04/27 01:42:21;;;;;;;;;;;;;;;19.24;37.41;102077.44;5138517;27;19951;-69
2023/04/27 01:44:47;;;;;;;;;;;;;;;19.25;37.21;102086.41;5131941;27;20146;-69
2023/04/27 01:47:13;;;;;;;;;;;;;;;19.23;37.40;102087.38;5117781;27;19915;-69
2023/04/27 01:49:38;;;;;;;;;;;;;;;19.23;37.11;102094.63;5134688;27;19911;-69
2023/04/27 01:52:04;;;;;;;;;;;;;;;19.23;37.18;102094.63;5131203;27;19922;-69
2023/04/27 01:54:29;;;;;;;;;;;;;;;19.24;37.02;102096.31;5134403;27;19920;-69
2023/04/27 01:56:54;;;;;;;;;;;;;;;19.23;37.27;102098.16;5131220;27;19979;-69
2023/04/27 01:59:19;;;;;;;;;;;;;;;19.25;37.30;102102.59;5128652;27;19931;-69
2023/04/27 02:01:45;;;;;;;;;;;;;;;19.24;37.13;102099.03;5133909;27;19918;-69
2023/04/27 02:04:10;;;;;;;;;;;;;;;19.24;37.18;102093.63;5133040;27;19959;-69
2023/04/27 02:06:35;;;;;;;;;;;;;;;19.25;37.27;102098.06;5131600;27;19911;-68
2023/04/27 02:09:00;;;;;;;;;;;;;;;19.25;37.23;102089.97;5137245;27;19918;-69
2023/04/27 02:11:26;;;;;;;;;;;;;;;19.25;37.13;102081.88;5133392;27;19912;-68
2023/04/27 02:13:51;;;;;;;;;;;;;;;19.25;37.10;102087.25;5132528;27;20474;-69
2023/04/27 02:16:16;;;;;;;;;;;;;;;19.26;37.08;102082.72;5136966;27;19920;-69
2023/04/27 02:18:41;;;;;;;;;;;;;;;19.26;37.14;102085.41;5130693;27;19911;-69
2023/04/27 02:21:07;;;;;;;;;;;;;;;19.26;37.03;102093.50;5131557;27;19915;-69
2023/04/27 02:23:33;;;;;;;;;;;;;;;19.26;37.03;102090.81;5129925;27;19927;-69
2023/04/27 02:25:58;;;;;;;;;;;;;;;19.26;37.09;102086.25;5131973;27;20299;-69
2023/04/27 02:28:23;;;;;;;;;;;;;;;19.27;36.83;102087.97;5130729;27;20014;-69
2023/04/27 02:30:49;;;;;;;;;;;;;;;19.28;36.97;102094.19;5132566;27;19912;-70
2023/04/27 02:33:14;;;;;;;;;;;;;;;19.28;37.20;102089.66;5128262;27;19915;-69
2023/04/27 02:35:39;;;;;;;;;;;;;;;19.29;36.98;102087.84;5133393;27;19918;-69
2023/04/27 02:38:05;;;;;;;;;;;;;;;19.29;36.79;102085.13;5135461;27;20041;-69
2023/04/27 02:40:30;;;;;;;;;;;;;;;19.29;37.05;102080.59;5133278;27;19929;-69
2023/04/27 02:42:56;;;;;;;;;;;;;;;19.30;36.87;102078.75;5138641;27;19911;-69
2023/04/27 02:45:21;;;;;;;;;;;;;;;19.31;36.87;102077.75;5130114;28;19916;-69
2023/04/27 02:47:46;;;;;;;;;;;;;;;19.31;37.02;102075.03;5132348;28;19912;-69
2023/04/27 02:50:12;;;;;;;;;;;;;;;19.32;36.81;102079.44;5134632;27;19912;-69
2023/04/27 02:52:37;;;;;;;;;;;;;;;19.33;37.00;102081.16;5130447;28;19923;-69
2023/04/27 02:55:02;;;;;;;;;;;;;;;19.34;36.78;102077.47;5130599;28;19912;-69
2023/04/27 02:57:28;;;;;;;;;;;;;;;19.34;36.78;102072.91;5130758;27;19920;-69
2023/04/27 02:59:53;;;;;;;;;;;;;;;19.35;36.78;102073.78;5134375;27;19971;-69
2023/04/27 03:02:18;;;;;;;;;;;;;;;19.35;36.60;102071.91;5128202;27;19926;-69
2023/04/27 03:04:43;;;;;;;;;;;;;;;19.35;36.77;102066.53;5140162;27;19920;-69
2023/04/27 03:07:11;;;;;;;;;;;;;;;19.36;36.59;102060.13;5126242;28;19911;-69
2023/04/27 03:09:37;;;;;;;;;;;;;;;19.37;36.54;102063.69;5127741;27;19915;-69
2023/04/27 03:12:02;;;;;;;;;;;;;;;19.37;36.44;102069.06;5135724;27;19956;-69
2023/04/27 03:14:28;;;;;;;;;;;;;;;19.39;36.43;102075.19;5134408;27;20394;-69
2023/04/27 03:16:54;;;;;;;;;;;;;;;19.39;36.58;102067.09;5138560;27;19912;-69
2023/04/27 03:19:20;;;;;;;;;;;;;;;19.40;36.26;102076.88;5133729;27;19911;-69
2023/04/27 03:21:45;;;;;;;;;;;;;;;19.41;36.30;102075.88;5133786;27;19937;-69
2023/04/27 03:24:10;;;;;;;;;;;;;;;19.41;36.50;102075.88;5120175;27;19916;-69
2023/04/27 03:26:35;;;;;;;;;;;;;;;19.42;36.46;102074.91;5135839;27;19923;-69
2023/04/27 03:29:00;;;;;;;;;;;;;;;19.42;36.23;102078.44;5133376;27;19915;-69
2023/04/27 03:31:26;;;;;;;;;;;;;;;19.43;36.37;102073.91;5137591;27;19911;-69
2023/04/27 03:33:51;;;;;;;;;;;;;;;19.45;36.12;102080.00;5132661;27;19967;-69
2023/04/27 03:36:16;;;;;;;;;;;;;;;19.45;36.30;102064.69;5120351;27;19918;-69
2023/04/27 03:38:41;;;;;;;;;;;;;;;19.45;36.02;102072.78;5136121;27;19944;-68
2023/04/27 03:41:06;;;;;;;;;;;;;;;19.46;36.04;102069.06;5137430;27;19923;-69
2023/04/27 03:43:32;;;;;;;;;;;;;;;19.46;36.31;102063.69;5138051;27;19916;-69
2023/04/27 03:45:57;;;;;;;;;;;;;;;19.47;36.16;102064.53;5132087;27;19963;-69
2023/04/27 03:48:22;;;;;;;;;;;;;;;19.48;36.10;102074.31;5134690;27;19960;-69
2023/04/27 03:50:47;;;;;;;;;;;;;;;19.48;36.11;102060.84;5134297;27;19937;-69
2023/04/27 03:53:13;;;;;;;;;;;;;;;19.48;35.96;102064.38;5134018;27;20006;-69
2023/04/27 03:55:38;;;;;;;;;;;;;;;19.50;36.17;102064.25;5132907;27;20400;-69
2023/04/27 03:58:04;;;;;;;;;;;;;;;19.49;36.08;102076.84;5134575;27;19971;-69
2023/04/27 04:00:30;;;;;;;;;;;;;;;19.50;36.23;102069.66;5133680;27;19964;-69
2023/04/27 04:02:55;;;;;;;;;;;;;;;19.51;36.01;102074.03;5137855;27;19922;-69
2023/04/27 04:05:20;;;;;;;;;;;;;;;19.52;36.02;102074.88;5140003;27;19912;-69
2023/04/27 04:07:46;;;;;;;;;;;;;;;19.53;35.83;102073.88;5131929;27;19951;-69
2023/04/27 04:10:11;;;;;;;;;;;;;;;19.54;35.68;102067.47;5138519;27;20448;-68
2023/04/27 04:12:36;;;;;;;;;;;;;;;19.54;35.64;102070.19;5134676;27;19919;-69
2023/04/27 04:15:02;;;;;;;;;;;;;;;19.55;35.89;102069.22;5133345;27;19927;-69
2023/04/27 04:17:27;;;;;;;;;;;;;;;19.56;35.99;102069.06;5135020;27;19923;-68
2023/04/27 04:19:52;;;;;;;;;;;;;;;19.57;35.81;102072.59;5132719;27;19918;-69
2023/04/27 04:22:20;;;;;;;;;;;;;;;19.58;35.87;102077.00;5132096;27;20294;-68
2023/04/27 04:24:46;;;;;;;;;;;;;;;19.59;35.59;102084.13;5131796;27;19923;-69
2023/04/27 04:27:11;;;;;;;;;;;;;;;19.60;35.79;102081.25;5134560;27;20018;-68
2023/04/27 04:29:37;;;;;;;;;;;;;;;19.61;35.67;102076.75;5131566;27;19993;-69
2023/04/27 04:32:02;;;;;;;;;;;;;;;19.62;35.47;102081.97;5138071;27;19951;-69
2023/04/27 04:34:28;;;;;;;;;;;;;;;19.64;35.52;102089.94;5133069;27;19962;-70
2023/04/27 04:36:56;;;;;;;;;;;;;;;19.64;35.72;102089.94;5134864;27;19959;-71
2023/04/27 04:39:21;;;;;;;;;;;;;;;19.66;35.52;102096.88;5134245;27;19961;-70
2023/04/27 04:41:48;;;;;;;;;;;;;;;19.69;35.51;102101.16;5133039;27;20006;-70
2023/04/27 04:44:14;;;;;;;;;;;;;;;19.71;35.68;102094.63;5115270;27;19924;-70
2023/04/27 04:46:39;;;;;;;;;;;;;;;19.73;35.79;102105.25;5132644;27;19934;-70
2023/04/27 04:49:05;;;;;;;;;;;;;;;19.75;35.49;102102.41;5132738;27;20396;-70
2023/04/27 04:51:30;;;;;;;;;;;;;;;19.76;35.64;102102.28;5116832;27;19925;-71
2023/04/27 04:53:55;;;;;;;;;;;;;;;19.80;35.60;102105.56;5112822;27;19915;-72
2023/04/27 04:56:20;;;;;;;;;;;;;;;19.82;35.64;102114.34;5118970;27;19969;-72
2023/04/27 04:58:46;;;;;;;;;;;;;;;19.83;35.95;102116.03;5135885;27;20380;-70
2023/04/27 05:01:11;;;;;;;;;;;;;;;19.85;35.75;102111.34;5132793;27;19919;-71
2023/04/27 05:03:36;;;;;;;;;;;;;;;19.86;35.63;102113.06;5133488;27;19920;-71
2023/04/27 05:06:01;;;;;;;;;;;;;;;19.88;35.83;102113.75;5111804;27;19977;-70
2023/04/27 05:08:26;;;;;;;;;;;;;;;19.90;35.84;102099.13;5128772;27;19919;-71
2023/04/27 05:10:52;;;;;;;;;;;;;;;19.92;35.92;102109.75;5134091;27;19920;-71
2023/04/27 05:13:17;;;;;;;;;;;;;;;19.93;35.81;102098.84;5129168;27;19924;-70
2023/04/27 05:15:42;;;;;;;;;;;;;;;19.95;36.01;102104.91;5130964;27;19916;-71
2023/04/27 05:18:08;;;;;;;;;;;;;;;19.97;35.82;102108.34;5131045;27;20269;-71
2023/04/27 05:20:33;;;;;;;;;;;;;;;19.99;36.18;102113.56;5116430;27;19912;-71
2023/04/27 05:22:59;;;;;;;;;;;;;;;20.02;35.83;102124.09;5131615;27;19938;-71
2023/04/27 05:25:24;;;;;;;;;;;;;;;20.03;35.92;102125.78;5115025;27;19918;-68
2023/04/27 05:27:49;;;;;;;;;;;;;;;20.05;35.77;102123.81;5131794;27;19916;-71
2023/04/27 05:30:14;;;;;;;;;;;;;;;20.07;35.80;102120.94;5134884;27;19915;-72
2023/04/27 05:32:40;;;;;;;;;;;;;;;20.08;35.87;102114.53;5136134;27;19951;-70
2023/04/27 05:35:05;;;;;;;;;;;;;;;20.09;35.82;102117.13;5132539;27;19998;-71
2023/04/27 05:37:30;;;;;;;;;;;;;;;20.11;35.77;102106.16;5130658;27;19927;-72
2023/04/27 05:39:55;;;;;;;;;;;;;;;20.13;35.98;102109.56;5129793;27;19923;-70
2023/04/27 05:42:20;;;;;;;;;;;;;;;20.16;35.81;102115.50;5133888;27;19919;-70
2023/04/27 05:44:46;;;;;;;;;;;;;;;20.17;35.72;102113.66;5130997;27;19923;-71
2023/04/27 05:47:11;;;;;;;;;;;;;;;20.19;35.68;102117.94;5131956;27;19919;-70
2023/04/27 05:49:36;;;;;;;;;;;;;;;20.21;35.72;102125.88;5132004;27;19975;-69
2023/04/27 05:52:01;;;;;;;;;;;;;;;20.23;35.70;102140.94;5131122;27;19912;-70
2023/04/27 05:54:26;;;;;;;;;;;;;;;20.25;35.77;102137.22;5132480;27;20137;-72
2023/04/27 05:56:52;;;;;;;;;;;;;;;20.28;35.79;102134.25;5116129;27;19912;-69
2023/04/27 05:59:17;;;;;;;;;;;;;;;20.29;35.75;102136.78;5134067;27;19915;-69
2023/04/27 06:01:42;;;;;;;;;;;;;;;20.32;35.81;102135.66;5131372;27;19971;-68
2023/04/27 06:04:07;;;;;;;;;;;;;;;20.34;35.61;102149.84;5136131;27;19934;-67
2023/04/27 06:06:34;;;;;;;;;;;;;;;20.34;35.52;102142.59;5130769;27;19922;-68
2023/04/27 06:08:59;;;;;;;;;;;;;;;20.37;35.66;102139.59;5110282;28;19974;-68
2023/04/27 06:11:24;;;;;;;;;;;;;;;20.38;35.48;102140.44;5112535;27;20368;-68
2023/04/27 06:13:49;;;;;;;;;;;;;;;20.39;35.47;102132.22;5130223;27;19919;-67
2023/04/27 06:16:15;;;;;;;;;;;;;;;20.41;35.16;102143.72;5131260;27;19966;-67
2023/04/27 06:18:40;;;;;;;;;;;;;;;20.43;35.18;102143.53;5134348;27;20533;-68
2023/04/27 06:21:05;;;;;;;;;;;;;;;20.43;35.12;102140.84;5133755;27;20035;-68
2023/04/27 06:23:31;;;;;;;;;;;;;;;20.44;35.34;102138.00;5130758;27;19920;-68
2023/04/27 06:25:57;;;;;;;;;;;;;;;20.46;35.04;102144.09;5136969;27;19916;-68
2023/04/27 06:28:22;;;;;;;;;;;;;;;20.47;34.90;102135.03;5131401;27;19912;-68
2023/04/27 06:30:47;;;;;;;;;;;;;;;20.49;35.17;102137.59;5137432;27;19990;-68
2023/04/27 06:33:13;;;;;;;;;;;;;;;20.52;35.20;102147.22;5135632;27;19917;-68
2023/04/27 06:35:38;;;;;;;;;;;;;;;20.54;34.97;102139.84;5134506;27;20015;-69
2023/04/27 06:38:03;;;;;;;;;;;;;;;20.55;35.13;102139.69;5133396;27;19916;-68
2023/04/27 06:40:28;;;;;;;;;;;;;;;20.56;34.83;102144.13;5132887;27;19915;-69
2023/04/27 06:42:54;;;;;;;;;;;;;;;20.59;34.94;102145.66;5133444;27;19912;-69
2023/04/27 06:45:19;;;;;;;;;;;;;;;20.61;34.90;102151.78;5128605;28;19926;-72
2023/04/27 06:47:45;;;;;;;;;;;;;;;20.63;34.80;102150.59;5130830;28;19998;-72
2023/04/27 06:50:10;;;;;;;;;;;;;;;20.63;34.97;102145.19;5132521;27;20007;-72
2023/04/27 06:52:35;;;;;;;;;;;;;;;20.66;34.84;102144.06;5132178;28;19922;-71
2023/04/27 06:55:00;;;;;;;;;;;;;;;20.67;34.84;102152.00;5133187;28;19915;-72
2023/04/27 06:57:26;;;;;;;;;;;;;;;20.69;34.70;102147.31;5129802;28;19923;-72
2023/04/27 06:59:52;;;;;;;;;;;;;;;20.70;34.65;102143.59;5132870;28;19937;-72
2023/04/27 07:02:17;;;;;;;;;;;;;;;20.72;34.69;102136.19;5129269;28;20312;-71
2023/04/27 07:04:42;;;;;;;;;;;;;;;20.75;34.60;102147.72;5112928;28;19919;-71
2023/04/27 07:07:07;;;;;;;;;;;;;;;20.76;34.68;102139.44;5132009;28;19916;-71
2023/04/27 07:09:32;;;;;;;;;;;;;;;20.77;34.73;102133.03;5130341;28;19979;-72
2023/04/27 07:11:59;;;;;;;;;;;;;;;20.79;34.53;102141.00;5129704;28;19924;-71
2023/04/27 07:14:25;;;;;;;;;;;;;;;20.81;34.59;102142.53;5127954;28;19924;-72
2023/04/27 07:16:50;;;;;;;;;;;;;;;20.83;34.45;102145.94;5129535;28;19929;-72
2023/04/27 07:19:15;;;;;;;;;;;;;;;20.83;34.18;102132.44;5110907;28;19923;-72
2023/04/27 07:21:40;;;;;;;;;;;;;;;20.85;34.12;102137.69;5133520;28;19943;-67
2023/04/27 07:24:06;;;;;;;;;;;;;;;20.86;34.09;102142.09;5128843;27;19971;-70
2023/04/27 07:26:31;;;;;;;;;;;;;;;20.87;34.29;102139.25;5117637;28;20347;-70
2023/04/27 07:28:57;;;;;;;;;;;;;;;20.88;34.14;102138.22;5128868;28;19983;-70
2023/04/27 07:31:22;;;;;;;;;;;;;;;20.89;33.85;102134.50;5125070;28;19922;-68
2023/04/27 07:33:47;;;;;;;;;;;;;;;20.89;33.89;102131.81;5134579;28;19915;-69
2023/04/27 07:36:12;;;;;;;;;;;;;;;20.93;34.21;102137.78;5130712;28;19912;-69
2023/04/27 07:38:37;;;;;;;;;;;;;;;20.94;34.09;102134.06;5127681;28;19936;-69
2023/04/27 07:41:04;;;;;;;;;;;;;;;20.95;34.10;102143.91;5128314;28;19915;-70
2023/04/27 07:43:30;;;;;;;;;;;;;;;20.97;34.10;102145.41;5129283;27;19920;-72
2023/04/27 07:45:57;;;;;;;;;;;;;;;20.99;34.24;102142.59;5138836;27;19982;-73
2023/04/27 07:48:22;;;;;;;;;;;;;;;21.02;34.05;102155.78;5114725;27;19927;-72
2023/04/27 07:50:47;;;;;;;;;;;;;;;21.04;33.75;102150.25;5137750;27;19919;-72
2023/04/27 07:53:12;;;;;;;;;;;;;;;21.07;33.76;102141.78;5139971;27;19975;-72
2023/04/27 07:55:38;;;;;;;;;;;;;;;21.08;34.03;102141.66;5133067;27;19922;-73
2023/04/27 07:58:03;;;;;;;;;;;;;;;21.09;33.90;102146.06;5139350;27;19951;-73
2023/04/27 08:00:28;;;;;;;;;;;;;;;21.11;33.83;102141.38;5136732;27;19930;-72
2023/04/27 08:02:53;;;;;;;;;;;;;;;21.13;33.85;102144.75;5131994;27;19920;-72
2023/04/27 08:05:18;;;;;;;;;;;;;;;21.13;33.77;102139.34;5133068;27;19924;-72
2023/04/27 08:07:44;;;;;;;;;;;;;;;21.15;33.46;102142.75;5133362;27;19932;-72
2023/04/27 08:10:13;;;;;;;;;;;;;;;21.16;33.63;102141.75;5131763;27;20424;-72
2023/04/27 08:12:38;;;;;;;;;;;;;;;21.18;33.55;102149.69;5116912;27;19920;-73
2023/04/27 08:15:04;;;;;;;;;;;;;;;21.20;33.57;102147.72;5116914;27;19923;-72
2023/04/27 08:17:29;;;;;;;;;;;;;;;21.20;33.36;102143.16;5134632;27;19915;-72
2023/04/27 08:19:55;;;;;;;;;;;;;;;21.22;33.45;102148.38;5134379;27;19947;-72
2023/04/27 08:22:20;;;;;;;;;;;;;;;21.24;33.25;102143.69;5132829;27;19915;-72
2023/04/27 08:24:45;;;;;;;;;;;;;;;21.25;33.16;102134.56;5128959;27;19919;-71
2023/04/27 08:27:10;;;;;;;;;;;;;;;21.26;33.14;102144.38;5131751;27;19916;-72
2023/04/27 08:29:35;;;;;;;;;;;;;;;21.28;33.09;102146.91;5135273;27;19915;-73
2023/04/27 08:32:01;;;;;;;;;;;;;;;21.29;32.88;102138.66;5133709;27;19968;-72
2023/04/27 08:34:27;;;;;;;;;;;;;;;21.31;32.91;102143.91;5133040;27;19912;-72
2023/04/27 08:36:53;;;;;;;;;;;;;;;21.33;32.96;102142.78;5130549;27;20376;-72
2023/04/27 08:39:18;;;;;;;;;;;;;;;21.35;32.86;102143.47;5132028;27;19923;-72
2023/04/27 08:41:43;;;;;;;;;;;;;;;21.36;32.74;102139.75;5116259;27;19962;-72
2023/04/27 08:44:08;;;;;;;;;;;;;;;21.39;32.82;102139.44;5132149;27;20368;-72
2023/04/27 08:46:33;;;;;;;;;;;;;;;21.40;33.00;102132.19;5128322;27;19997;-73
2023/04/27 08:48:59;;;;;;;;;;;;;;;21.43;32.77;102131.88;5121944;27;20479;-73
2023/04/27 08:51:26;;;;;;;;;;;;;;;21.45;32.80;102130.72;5130784;27;19955;-73
2023/04/27 08:53:53;;;;;;;;;;;;;;;21.48;32.88;102134.13;5124333;27;19926;-73
2023/04/27 08:56:18;;;;;;;;;;;;;;;21.50;32.65;102132.13;5133344;27;20396;-73
2023/04/27 08:58:43;;;;;;;;;;;;;;;21.54;32.94;102136.22;5116925;27;20008;-73
2023/04/27 09:01:11;;;;;;;;;;;;;;;21.55;32.93;102136.03;5134446;27;19988;-73
2023/04/27 09:03:36;;;;;;;;;;;;;;;21.57;33.05;102131.31;5134268;27;19941;-73
2023/04/27 09:06:02;;;;;;;;;;;;;;;21.60;32.93;102127.47;5130346;27;19979;-73
2023/04/27 09:08:28;;;;;;;;;;;;;;;21.64;32.67;102131.56;5133151;27;19922;-73
2023/04/27 09:10:56;;;;;;;;;;;;;;;21.67;33.03;102123.13;5116535;27;19915;-73
2023/04/27 09:13:21;;;;;;;;;;;;;;;21.70;32.61;102122.78;5131370;27;20014;-74
2023/04/27 09:15:47;;;;;;;;;;;;;;;21.74;32.93;102123.31;5135414;27;19919;-74
2023/04/27 09:18:22;;;;;;;;;;;;;;;21.77;32.93;102121.16;5134423;27;20010;-73
2023/04/27 09:20:48;;;;;;;;;;;;;;;21.80;32.88;102120.00;5136342;27;19958;-73
2023/04/27 09:23:30;;;;;;;;;;;;;;;21.84;32.69;102124.94;5134943;27;19916;-73
2023/04/27 09:25:56;;;;;;;;;;;;;;;21.89;32.57;102125.31;5130147;27;19911;-73
2023/04/27 09:28:21;;;;;;;;;;;;;;;21.91;32.84;102131.41;5134702;27;19915;-73
2023/04/27 09:30:50;;;;;;;;;;;;;;;21.96;32.87;102131.78;5130968;27;19916;-74
2023/04/27 09:33:21;;;;;;;;;;;;;;;21.99;32.82;102130.59;5131122;27;19950;-73
2023/04/27 09:35:46;;;;;;;;;;;;;;;22.02;32.58;102118.63;5133298;27;19916;-74
2023/04/27 09:38:11;;;;;;;;;;;;;;;22.05;32.80;102123.72;5123938;27;19916;-74
2023/04/27 09:40:39;;;;;;;;;;;;;;;22.08;32.77;102121.53;5131112;27;19922;-74
2023/04/27 09:43:04;;;;;;;;;;;;;;;22.12;32.55;102111.22;5131622;27;20010;-74
2023/04/27 09:45:29;;;;;;;;;;;;;;;22.14;33.00;102110.09;5115934;27;20413;-73
2023/04/27 09:47:55;;;;;;;;;;;;;;;22.16;32.53;102107.22;5113354;27;19946;-73
2023/04/27 09:50:23;;;;;;;;;;;;;;;22.18;32.85;102099.78;5141480;27;19922;-73
2023/04/27 09:52:48;;;;;;;;;;;;;;;22.18;32.79;102094.38;5113802;27;19922;-73
2023/04/27 09:55:18;;;;;;;;;;;;;;;22.17;33.19;102090.81;5133137;27;19916;-73
2023/04/27 09:57:47;;;;;;;;;;;;;;;22.20;33.01;102095.03;5112936;27;19916;-73
2023/04/27 10:00:31;;;;;;;;;;;;;;;22.18;32.86;102091.66;5132950;27;19957;-74
2023/04/27 10:03:02;;;;;;;;;;;;;;;22.14;33.20;102096.56;5132758;27;19922;-73
2023/04/27 10:05:37;;;;;;;;;;;;;;;22.14;33.28;102084.88;5130135;27;19920;-73
2023/04/27 10:08:03;;;;;;;;;;;;;;;22.12;32.90;102086.84;5111952;27;19932;-73
2023/04/27 10:10:28;;;;;;;;;;;;;;;22.10;32.97;102083.47;5113338;27;19930;-74
2023/04/27 10:12:54;;;;;;;;;;;;;;;22.07;33.25;102075.66;5130497;27;19916;-73
2023/04/27 10:15:24;;;;;;;;;;;;;;;22.09;33.47;102087.16;5128940;27;20380;-73
2023/04/27 10:17:51;;;;;;;;;;;;;;;22.05;33.28;102072.28;5134314;27;19924;-74
2023/04/27 10:20:27;;;;;;;;;;;;;;;22.03;33.36;102077.81;5128266;27;19927;-73
2023/04/27 10:22:52;;;;;;;;;;;;;;;21.99;33.73;102075.59;5135787;27;19926;-74
2023/04/27 10:25:18;;;;;;;;;;;;;;;22.02;33.87;102070.72;5129204;27;19919;-72
2023/04/27 10:27:51;;;;;;;;;;;;;;;22.02;33.93;102073.44;5131621;27;19997;-73
2023/04/27 10:30:17;;;;;;;;;;;;;;;22.05;34.09;102059.56;5131796;27;19951;-75
2023/04/27 10:33:11;;;;;;;;;;;;;;;22.14;33.94;102066.75;5132950;27;19923;-73
2023/04/27 10:35:41;;;;;;;;;;;;;;;22.19;34.29;102063.56;5098842;28;19912;-73
2023/04/27 10:38:13;;;;;;;;;;;;;;;22.27;34.26;102065.47;5128669;27;19922;-72
2023/04/27 10:40:39;;;;;;;;;;;;;;;22.31;34.09;102067.69;5129389;27;19912;-73
2023/04/27 10:43:08;;;;;;;;;;;;;;;22.38;34.40;102066.00;5112532;28;19937;-73
2023/04/27 10:45:33;;;;;;;;;;;;;;;22.38;34.38;102071.41;5114731;27;19978;-73
2023/04/27 10:47:59;;;;;;;;;;;;;;;22.41;34.32;102067.53;5130055;28;20368;-72
2023/04/27 10:50:24;;;;;;;;;;;;;;;22.44;34.41;102065.34;5116274;28;19916;-72
2023/04/27 10:52:49;;;;;;;;;;;;;;;22.52;34.35;102069.97;5111567;28;19971;-71
2023/04/27 10:55:19;;;;;;;;;;;;;;;22.57;34.09;102072.16;5129555;28;19943;-71
2023/04/27 10:57:45;;;;;;;;;;;;;;;22.58;34.54;102058.44;5128833;28;19968;-74
2023/04/27 11:00:13;;;;;;;;;;;;;;;22.61;34.21;102063.53;5112725;28;20010;-73
2023/04/27 11:02:38;;;;;;;;;;;;;;;22.59;34.17;102065.56;5107865;28;19982;-73
2023/04/27 11:05:06;;;;;;;;;;;;;;;22.59;34.39;102059.28;5106497;28;19955;-72
2023/04/27 11:07:32;;;;;;;;;;;;;;;22.56;34.36;102055.06;5123522;28;19958;-73
2023/04/27 11:09:58;;;;;;;;;;;;;;;22.52;34.65;102059.13;5110378;28;19920;-73
2023/04/27 11:12:23;;;;;;;;;;;;;;;22.43;34.63;102060.09;5107368;28;19915;-73
2023/04/27 11:14:48;;;;;;;;;;;;;;;22.37;34.84;102058.88;5127054;28;20041;-73
2023/04/27 11:17:13;;;;;;;;;;;;;;;22.30;34.84;102057.84;5135709;28;19975;-73
2023/04/27 11:19:46;;;;;;;;;;;;;;;22.26;35.24;102055.59;5117545;27;19916;-73
2023/04/27 11:22:11;;;;;;;;;;;;;;;22.24;35.18;102052.22;5133439;27;19915;-73
2023/04/27 11:24:36;;;;;;;;;;;;;;;22.22;35.31;102052.41;5134896;27;19923;-73
2023/04/27 11:27:01;;;;;;;;;;;;;;;22.18;35.34;102054.59;5116092;27;19969;-73
2023/04/27 11:29:36;;;;;;;;;;;;;;;22.16;35.32;102055.75;5132070;27;19911;-73
2023/04/27 11:32:01;;;;;;;;;;;;;;;22.19;35.27;102047.31;5117902;27;20022;-73
2023/04/27 11:34:26;;;;;;;;;;;;;;;22.20;35.38;102047.13;5134534;27;19912;-72
2023/04/27 11:37:05;;;;;;;;;;;;;;;22.22;35.29;102044.28;5132634;27;19911;-73
2023/04/27 11:39:37;;;;;;;;;;;;;;;22.21;35.70;102043.41;5137983;27;20020;-73
2023/04/27 11:42:21;;;;;;;;;;;;;;;22.21;35.58;102043.41;5139074;27;19919;-73
2023/04/27 11:44:53;;;;;;;;;;;;;;;22.21;35.74;102034.44;5132722;27;19934;-72
2023/04/27 11:47:18;;;;;;;;;;;;;;;22.20;35.46;102035.44;5131929;27;19920;-73
2023/04/27 11:49:47;;;;;;;;;;;;;;;22.16;35.58;102032.22;5137960;27;19941;-73
2023/04/27 11:52:12;;;;;;;;;;;;;;;22.15;35.82;102022.41;5133388;27;19937;-72
2023/04/27 11:54:37;;;;;;;;;;;;;;;22.16;35.66;102028.66;5134216;27;19924;-71
2023/04/27 11:57:03;;;;;;;;;;;;;;;22.16;35.64;102028.66;5133060;27;19968;-72
2023/04/27 11:59:29;;;;;;;;;;;;;;;22.16;35.60;102026.78;5130949;27;19919;-71
2023/04/27 12:01:54;;;;;;;;;;;;;;;22.17;35.78;102025.81;5134159;27;19926;-72
2023/04/27 12:04:19;;;;;;;;;;;;;;;22.18;35.98;102027.50;5133378;27;19979;-70
2023/04/27 12:06:45;;;;;;;;;;;;;;;22.20;36.16;102027.31;5119914;27;19911;-72
2023/04/27 12:09:10;;;;;;;;;;;;;;;22.20;35.95;102028.16;5133027;27;19911;-72
2023/04/27 12:11:35;;;;;;;;;;;;;;;22.20;35.96;102032.75;5138232;27;19924;-72
2023/04/27 12:14:01;;;;;;;;;;;;;;;22.19;36.17;102039.19;5132522;27;19924;-71
2023/04/27 12:16:26;;;;;;;;;;;;;;;22.19;36.14;102029.19;5131611;27;19975;-72
2023/04/27 12:18:51;;;;;;;;;;;;;;;22.20;36.37;102027.31;5134583;27;19919;-72
2023/04/27 12:21:16;;;;;;;;;;;;;;;22.20;36.14;102022.75;5132334;27;19912;-72
2023/04/27 12:23:42;;;;;;;;;;;;;;;22.22;36.41;102017.19;5113121;27;19919;-71
2023/04/27 12:26:07;;;;;;;;;;;;;;;22.21;36.42;102012.75;5132483;27;19912;-71
2023/04/27 12:28:32;;;;;;;;;;;;;;;22.24;36.47;102011.59;5132865;27;19919;-72